Time;durP1;ratioP1;P1;durP2;ratioP2;P2;SDS_P1;SDS_P2;PMS_P1;PMS_P2;Temp;Humidity;BMP_temperature;BMP_pressure;BME280_temperature;BME280_humidity;BME280_pressure;Samples;Min_cycle;Max_cycle;Signal;HPM_P1;HPM_P2
2023/04/23 00:00:10;;;;;;;4.05;2.15;;;;;;;;;;5012453;28;20034;-57
2023/04/23 00:02:37;;;;;;;12.18;2.30;;;;;;;;;;5014158;28;20046;-57
2023/04/23 00:05:05;;;;;;;3.28;2.55;;;;;;;;;;5011181;28;20042;-57
2023/04/23 00:07:32;;;;;;;6.35;2.90;;;;;;;;;;5012859;28;20942;-57
2023/04/23 00:09:59;;;;;;;5.53;1.80;;;;;;;;;;5012074;28;20050;-57
2023/04/23 00:12:25;;;;;;;4.68;2.15;;;;;;;;;;5006764;28;20052;-57
2023/04/23 00:14:51;;;;;;;6.50;2.67;;;;;;;;;;5013763;28;20050;-57
2023/04/23 00:17:18;;;;;;;4.35;1.88;;;;;;;;;;5013006;28;20034;-57
2023/04/23 00:19:45;;;;;;;5.32;1.90;;;;;;;;;;5044751;28;20474;-57
2023/04/23 00:22:12;;;;;;;5.32;1.92;;;;;;;;;;5015416;28;20133;-57
2023/04/23 00:24:38;;;;;;;7.40;1.88;;;;;;;;;;5013432;28;20644;-58
2023/04/23 00:27:05;;;;;;;7.03;2.15;;;;;;;;;;5014182;28;20050;-58
2023/04/23 00:29:31;;;;;;;7.50;3.97;;;;;;;;;;5014387;28;20037;-59
2023/04/23 00:31:57;;;;;;;4.28;1.70;;;;;;;;;;5015259;28;20782;-59
2023/04/23 00:34:23;;;;;;;5.03;1.70;;;;;;;;;;5012683;28;20046;-59
2023/04/23 00:36:49;;;;;;;7.50;2.40;;;;;;;;;;5014106;28;20045;-57
2023/04/23 00:39:15;;;;;;;7.95;2.95;;;;;;;;;;5014089;28;20093;-58
2023/04/23 00:41:42;;;;;;;6.57;2.65;;;;;;;;;;5005376;28;20041;-58
2023/04/23 00:44:09;;;;;;;5.20;2.70;;;;;;;;;;5013814;28;20128;-58
2023/04/23 00:46:35;;;;;;;3.42;2.05;;;;;;;;;;5014467;28;20180;-58
2023/04/23 00:49:02;;;;;;;9.63;2.80;;;;;;;;;;5012996;28;20466;-58
2023/04/23 00:51:28;;;;;;;5.30;2.30;;;;;;;;;;5006105;28;20037;-58
2023/04/23 00:53:55;;;;;;;4.97;2.28;;;;;;;;;;5013946;28;20901;-58
2023/04/23 00:56:22;;;;;;;4.50;2.10;;;;;;;;;;5013519;28;20045;-58
2023/04/23 00:58:48;;;;;;;6.88;2.28;;;;;;;;;;5014127;28;20042;-57
2023/04/23 01:01:17;;;;;;;9.32;2.45;;;;;;;;;;5015018;28;20045;-58
2023/04/23 01:03:43;;;;;;;9.25;3.75;;;;;;;;;;5010843;28;20074;-58
2023/04/23 01:06:09;;;;;;;6.15;2.30;;;;;;;;;;5012172;28;20042;-58
2023/04/23 01:08:35;;;;;;;6.90;2.92;;;;;;;;;;5013245;28;20546;-58
2023/04/23 01:11:02;;;;;;;8.95;2.17;;;;;;;;;;5013945;28;20510;-58
2023/04/23 01:13:29;;;;;;;8.27;4.57;;;;;;;;;;5028924;28;20058;-58
2023/04/23 01:15:55;;;;;;;7.10;2.03;;;;;;;;;;5013561;28;20117;-58
2023/04/23 01:18:22;;;;;;;5.22;2.38;;;;;;;;;;5013581;28;20520;-58
2023/04/23 01:20:48;;;;;;;6.18;2.28;;;;;;;;;;5013976;28;20053;-59
2023/04/23 01:23:15;;;;;;;6.18;2.75;;;;;;;;;;5011722;28;20045;-58
2023/04/23 01:25:41;;;;;;;4.55;2.45;;;;;;;;;;5013242;28;20701;-58
2023/04/23 01:28:07;;;;;;;8.55;3.10;;;;;;;;;;5013033;28;20038;-57
2023/04/23 01:30:33;;;;;;;6.30;2.15;;;;;;;;;;5013381;28;20163;-58
2023/04/23 01:32:59;;;;;;;5.18;2.17;;;;;;;;;;5014552;28;20059;-58
2023/04/23 01:35:25;;;;;;;8.43;2.50;;;;;;;;;;5012718;28;20104;-59
2023/04/23 01:37:53;;;;;;;6.80;2.65;;;;;;;;;;5012310;28;20104;-58
2023/04/23 01:40:19;;;;;;;7.05;1.60;;;;;;;;;;5016161;28;20042;-58
2023/04/23 01:42:46;;;;;;;7.20;2.38;;;;;;;;;;5017346;28;20074;-58
2023/04/23 01:45:12;;;;;;;4.63;2.10;;;;;;;;;;5016291;28;20034;-58
2023/04/23 01:47:39;;;;;;;7.57;3.00;;;;;;;;;;5018047;28;20050;-58
2023/04/23 01:50:05;;;;;;;8.00;2.10;;;;;;;;;;5030480;28;20539;-58
2023/04/23 01:52:31;;;;;;;13.57;4.43;;;;;;;;;;5017955;28;20045;-58
2023/04/23 01:54:57;;;;;;;7.72;2.15;;;;;;;;;;5015241;28;20554;-58
2023/04/23 01:57:25;;;;;;;5.85;1.88;;;;;;;;;;5018026;28;20046;-58
2023/04/23 01:59:51;;;;;;;9.02;3.10;;;;;;;;;;5009177;28;20060;-58
2023/04/23 02:02:18;;;;;;;4.25;2.63;;;;;;;;;;5018576;28;20046;-57
2023/04/23 02:04:44;;;;;;;4.47;2.15;;;;;;;;;;5013270;28;20621;-58
2023/04/23 02:07:11;;;;;;;5.72;2.50;;;;;;;;;;5016234;28;20049;-57
2023/04/23 02:09:37;;;;;;;8.68;2.60;;;;;;;;;;5014325;28;20043;-57
2023/04/23 02:12:03;;;;;;;7.22;2.80;;;;;;;;;;5015390;28;20089;-57
2023/04/23 02:14:29;;;;;;;6.57;2.92;;;;;;;;;;5017239;28;20069;-57
2023/04/23 02:16:56;;;;;;;8.80;3.10;;;;;;;;;;5016763;28;20038;-58
2023/04/23 02:19:22;;;;;;;7.72;2.85;;;;;;;;;;5015713;28;20581;-57
2023/04/23 02:21:48;;;;;;;7.85;4.03;;;;;;;;;;5016909;28;20097;-57
2023/04/23 02:24:14;;;;;;;7.15;2.83;;;;;;;;;;5016210;28;20038;-58
2023/04/23 02:26:40;;;;;;;6.70;2.78;;;;;;;;;;5016380;28;20049;-57
2023/04/23 02:29:06;;;;;;;4.88;2.35;;;;;;;;;;5013555;28;20039;-60
2023/04/23 02:31:32;;;;;;;7.15;2.42;;;;;;;;;;5008935;28;20073;-57
2023/04/23 02:33:59;;;;;;;9.30;4.00;;;;;;;;;;5014857;28;20547;-57
2023/04/23 02:36:27;;;;;;;16.73;3.35;;;;;;;;;;5016165;28;20849;-57
2023/04/23 02:38:53;;;;;;;3.20;2.25;;;;;;;;;;5008225;28;20428;-57
2023/04/23 02:41:20;;;;;;;3.80;2.08;;;;;;;;;;5017250;28;20049;-57
2023/04/23 02:43:46;;;;;;;6.28;3.40;;;;;;;;;;5014917;28;20069;-57
2023/04/23 02:46:12;;;;;;;6.20;2.10;;;;;;;;;;5014580;28;20420;-57
2023/04/23 02:48:39;;;;;;;3.72;2.10;;;;;;;;;;5015225;28;20093;-57
2023/04/23 02:51:07;;;;;;;7.13;2.33;;;;;;;;;;5014468;28;20080;-58
2023/04/23 02:53:33;;;;;;;10.77;2.63;;;;;;;;;;5016707;28;20072;-57
2023/04/23 02:56:00;;;;;;;8.38;1.88;;;;;;;;;;5015297;28;20042;-57
2023/04/23 02:58:26;;;;;;;5.95;2.40;;;;;;;;;;5016309;28;20084;-57
2023/04/23 03:00:52;;;;;;;4.32;1.98;;;;;;;;;;5015486;28;20568;-57
2023/04/23 03:03:19;;;;;;;11.10;3.45;;;;;;;;;;5013937;28;20737;-57
2023/04/23 03:05:45;;;;;;;6.80;2.85;;;;;;;;;;5030162;28;20129;-57
2023/04/23 03:08:11;;;;;;;6.57;4.00;;;;;;;;;;5016058;28;20038;-57
2023/04/23 03:10:37;;;;;;;9.20;3.45;;;;;;;;;;5015693;28;20045;-57
2023/04/23 03:13:03;;;;;;;10.35;2.30;;;;;;;;;;5014793;28;20117;-57
2023/04/23 03:15:29;;;;;;;8.82;2.67;;;;;;;;;;5014742;28;21448;-57
2023/04/23 03:17:55;;;;;;;8.00;2.17;;;;;;;;;;5014046;28;20041;-57
2023/04/23 03:20:22;;;;;;;12.23;2.58;;;;;;;;;;5014400;28;20835;-57
2023/04/23 03:22:48;;;;;;;5.90;2.10;;;;;;;;;;5016744;28;20053;-57
2023/04/23 03:25:14;;;;;;;9.18;4.65;;;;;;;;;;5015982;28;20049;-58
2023/04/23 03:27:40;;;;;;;9.60;2.55;;;;;;;;;;5015959;28;20038;-57
2023/04/23 03:30:07;;;;;;;9.85;2.53;;;;;;;;;;5014692;28;20046;-57
2023/04/23 03:32:33;;;;;;;9.30;3.92;;;;;;;;;;5013012;28;20042;-57
2023/04/23 03:35:00;;;;;;;4.10;1.80;;;;;;;;;;5014362;28;20049;-57
2023/04/23 03:37:26;;;;;;;4.65;1.98;;;;;;;;;;5016597;28;20045;-57
2023/04/23 03:39:52;;;;;;;5.28;2.60;;;;;;;;;;5014471;28;20066;-57
2023/04/23 03:42:18;;;;;;;6.13;2.65;;;;;;;;;;5015322;28;20057;-57
2023/04/23 03:44:44;;;;;;;6.40;3.03;;;;;;;;;;5014281;28;20034;-57
2023/04/23 03:47:11;;;;;;;9.95;2.85;;;;;;;;;;5015653;28;20053;-58
2023/04/23 03:49:37;;;;;;;6.15;2.72;;;;;;;;;;5012560;28;20146;-57
2023/04/23 03:52:03;;;;;;;7.28;2.20;;;;;;;;;;5014414;28;20129;-57
2023/04/23 03:54:29;;;;;;;9.90;2.50;;;;;;;;;;5013861;28;20094;-57
2023/04/23 03:56:56;;;;;;;6.93;2.20;;;;;;;;;;5015815;28;20416;-57
2023/04/23 03:59:23;;;;;;;7.32;2.55;;;;;;;;;;5030504;28;20057;-57
2023/04/23 04:01:49;;;;;;;5.05;2.70;;;;;;;;;;5014636;28;20049;-58
2023/04/23 04:04:15;;;;;;;9.73;2.50;;;;;;;;;;5013924;28;20130;-58
2023/04/23 04:06:41;;;;;;;9.85;2.85;;;;;;;;;;5011998;28;20042;-57
2023/04/23 04:09:07;;;;;;;5.70;2.38;;;;;;;;;;5014717;28;20077;-57
2023/04/23 04:11:34;;;;;;;10.55;2.53;;;;;;;;;;5014660;28;20100;-57
2023/04/23 04:14:00;;;;;;;10.18;3.25;;;;;;;;;;5031403;28;20057;-57
2023/04/23 04:16:26;;;;;;;7.15;2.30;;;;;;;;;;5014429;28;20073;-57
2023/04/23 04:18:52;;;;;;;5.50;3.13;;;;;;;;;;5014157;28;20057;-58
2023/04/23 04:21:18;;;;;;;6.25;4.35;;;;;;;;;;5029953;28;20411;-57
2023/04/23 04:23:45;;;;;;;5.30;2.40;;;;;;;;;;5010919;28;20037;-58
2023/04/23 04:26:12;;;;;;;8.27;2.03;;;;;;;;;;5015338;28;20088;-58
2023/04/23 04:28:38;;;;;;;7.00;2.58;;;;;;;;;;5013030;28;20049;-58
2023/04/23 04:31:05;;;;;;;5.63;2.55;;;;;;;;;;5014920;28;20041;-58
2023/04/23 04:33:32;;;;;;;4.55;3.13;;;;;;;;;;5012661;28;20092;-58
2023/04/23 04:35:59;;;;;;;3.25;1.60;;;;;;;;;;5013889;28;21781;-58
2023/04/23 04:38:25;;;;;;;13.68;4.45;;;;;;;;;;5013238;28;20045;-58
2023/04/23 04:40:57;;;;;;;6.25;2.63;;;;;;;;;;5027134;28;20042;-58
2023/04/23 04:43:23;;;;;;;7.65;2.70;;;;;;;;;;5011454;28;20085;-58
2023/04/23 04:45:50;;;;;;;5.70;2.20;;;;;;;;;;5007393;28;20065;-58
2023/04/23 04:48:16;;;;;;;7.22;2.63;;;;;;;;;;5029450;28;20519;-58
2023/04/23 04:50:43;;;;;;;5.53;2.30;;;;;;;;;;5013350;28;20085;-58
2023/04/23 04:53:09;;;;;;;8.35;2.55;;;;;;;;;;5012877;28;20042;-58
2023/04/23 04:55:35;;;;;;;5.55;2.03;;;;;;;;;;5014408;28;20041;-58
2023/04/23 04:58:01;;;;;;;9.98;2.33;;;;;;;;;;5012493;28;20044;-58
2023/04/23 05:00:28;;;;;;;11.15;2.33;;;;;;;;;;5012869;28;20038;-57
2023/04/23 05:02:55;;;;;;;4.25;1.90;;;;;;;;;;5013075;28;20346;-58
2023/04/23 05:05:21;;;;;;;5.40;1.90;;;;;;;;;;5013051;28;20921;-58
2023/04/23 05:07:47;;;;;;;6.15;1.83;;;;;;;;;;5013553;28;20053;-58
2023/04/23 05:10:14;;;;;;;5.72;2.17;;;;;;;;;;5014118;28;20045;-58
2023/04/23 05:12:41;;;;;;;4.75;2.15;;;;;;;;;;5011055;28;20555;-58
2023/04/23 05:15:08;;;;;;;3.03;2.15;;;;;;;;;;5012261;28;20085;-58
2023/04/23 05:17:34;;;;;;;7.10;2.88;;;;;;;;;;5013761;28;20046;-58
2023/04/23 05:20:00;;;;;;;8.95;2.50;;;;;;;;;;5012428;28;20089;-57
2023/04/23 05:22:26;;;;;;;7.07;3.10;;;;;;;;;;5013590;28;20080;-57
2023/04/23 05:24:52;;;;;;;7.43;2.15;;;;;;;;;;5012910;28;20035;-57
2023/04/23 05:27:18;;;;;;;6.78;2.60;;;;;;;;;;5013721;28;20050;-58
2023/04/23 05:29:45;;;;;;;5.20;2.08;;;;;;;;;;5011296;28;20042;-58
2023/04/23 05:32:11;;;;;;;3.33;1.80;;;;;;;;;;5013321;28;20169;-58
2023/04/23 05:34:37;;;;;;;5.72;2.05;;;;;;;;;;5012948;28;20137;-58
2023/04/23 05:37:05;;;;;;;8.68;2.00;;;;;;;;;;5013698;28;20355;-58
2023/04/23 05:39:31;;;;;;;9.70;2.08;;;;;;;;;;5013469;28;20037;-58
2023/04/23 05:41:57;;;;;;;5.18;3.72;;;;;;;;;;5013887;28;20046;-59
2023/04/23 05:44:23;;;;;;;11.23;2.50;;;;;;;;;;5011708;28;20643;-59
2023/04/23 05:46:49;;;;;;;5.20;1.88;;;;;;;;;;5013681;28;20522;-59
2023/04/23 05:49:15;;;;;;;10.73;1.85;;;;;;;;;;5012980;28;20665;-59
2023/04/23 05:51:41;;;;;;;5.03;1.95;;;;;;;;;;5014104;28;20050;-59
2023/04/23 05:54:07;;;;;;;4.63;1.80;;;;;;;;;;5029583;28;20479;-59
2023/04/23 05:56:33;;;;;;;4.50;2.08;;;;;;;;;;5013202;28;20101;-59
2023/04/23 05:59:00;;;;;;;6.72;2.10;;;;;;;;;;5012714;28;20084;-59
2023/04/23 06:01:26;;;;;;;5.78;1.90;;;;;;;;;;5011925;28;20069;-59
2023/04/23 06:03:52;;;;;;;6.20;2.00;;;;;;;;;;5012092;28;20085;-59
2023/04/23 06:06:18;;;;;;;5.32;2.28;;;;;;;;;;5010964;28;20050;-59
2023/04/23 06:08:44;;;;;;;5.50;2.60;;;;;;;;;;5012319;28;20045;-59
2023/04/23 06:11:10;;;;;;;6.10;2.90;;;;;;;;;;5013007;28;20555;-59
2023/04/23 06:13:39;;;;;;;4.85;2.78;;;;;;;;;;5013077;28;20603;-59
2023/04/23 06:16:07;;;;;;;10.23;2.60;;;;;;;;;;5013823;28;20077;-59
2023/04/23 06:18:33;;;;;;;8.35;2.80;;;;;;;;;;5009895;28;20566;-59
2023/04/23 06:21:03;;;;;;;9.95;1.98;;;;;;;;;;5011555;28;20038;-59
2023/04/23 06:23:32;;;;;;;7.55;2.10;;;;;;;;;;5012112;28;20457;-58
2023/04/23 06:25:59;;;;;;;5.05;2.10;;;;;;;;;;5015263;28;20037;-58
2023/04/23 06:28:25;;;;;;;6.20;1.95;;;;;;;;;;5031191;28;20050;-58
2023/04/23 06:30:52;;;;;;;5.50;2.28;;;;;;;;;;5016177;28;20042;-58
2023/04/23 06:33:18;;;;;;;7.25;2.70;;;;;;;;;;5014872;28;20121;-58
2023/04/23 06:35:45;;;;;;;6.72;3.25;;;;;;;;;;5014762;28;20053;-58
2023/04/23 06:38:11;;;;;;;7.30;2.65;;;;;;;;;;5015437;28;20152;-58
2023/04/23 06:40:37;;;;;;;4.38;2.67;;;;;;;;;;5015728;28;20618;-58
2023/04/23 06:43:04;;;;;;;3.70;2.65;;;;;;;;;;5016175;28;20089;-57
2023/04/23 06:45:32;;;;;;;4.30;2.28;;;;;;;;;;5015983;28;20527;-57
2023/04/23 06:47:58;;;;;;;4.43;2.63;;;;;;;;;;5014638;28;20499;-58
2023/04/23 06:50:24;;;;;;;5.50;3.25;;;;;;;;;;5015592;28;20559;-58
2023/04/23 06:52:50;;;;;;;6.18;2.55;;;;;;;;;;5006039;28;20073;-57
2023/04/23 06:55:16;;;;;;;6.80;3.05;;;;;;;;;;5016355;28;20038;-58
2023/04/23 06:57:43;;;;;;;4.63;2.70;;;;;;;;;;5015480;28;20088;-58
2023/04/23 07:00:12;;;;;;;5.03;2.33;;;;;;;;;;5017354;28;20069;-58
2023/04/23 07:02:38;;;;;;;6.18;2.88;;;;;;;;;;5015408;28;20052;-57
2023/04/23 07:05:05;;;;;;;6.72;2.72;;;;;;;;;;5030837;28;20050;-58
2023/04/23 07:07:31;;;;;;;6.28;2.42;;;;;;;;;;5016275;28;20034;-58
2023/04/23 07:09:57;;;;;;;3.17;2.60;;;;;;;;;;5045132;28;20567;-58
2023/04/23 07:12:24;;;;;;;9.07;2.90;;;;;;;;;;5015128;28;20034;-58
2023/04/23 07:14:52;;;;;;;5.22;2.80;;;;;;;;;;5015857;28;20676;-57
2023/04/23 07:17:18;;;;;;;5.63;3.08;;;;;;;;;;5008240;28;20042;-58
2023/04/23 07:19:44;;;;;;;5.70;2.88;;;;;;;;;;5014181;28;20197;-58
2023/04/23 07:22:10;;;;;;;7.30;2.50;;;;;;;;;;5013711;28;20038;-57
2023/04/23 07:24:36;;;;;;;4.80;3.47;;;;;;;;;;5014965;28;21006;-58
2023/04/23 07:27:02;;;;;;;4.50;2.58;;;;;;;;;;5013470;28;20038;-57
2023/04/23 07:29:28;;;;;;;11.10;3.15;;;;;;;;;;5013799;28;20046;-57
2023/04/23 07:31:55;;;;;;;5.93;3.35;;;;;;;;;;5014986;28;20051;-57
2023/04/23 07:34:21;;;;;;;5.45;3.00;;;;;;;;;;5029408;28;20046;-57
2023/04/23 07:36:47;;;;;;;4.75;2.90;;;;;;;;;;5011213;28;20543;-57
2023/04/23 07:39:13;;;;;;;7.85;4.35;;;;;;;;;;5023210;28;20121;-57
2023/04/23 07:41:39;;;;;;;4.60;2.72;;;;;;;;;;5013649;28;20196;-57
2023/04/23 07:44:06;;;;;;;5.93;2.92;;;;;;;;;;5014989;28;20129;-57
2023/04/23 07:46:32;;;;;;;4.13;2.75;;;;;;;;;;5014062;28;20346;-57
2023/04/23 07:48:58;;;;;;;4.07;2.85;;;;;;;;;;5014258;28;20045;-57
2023/04/23 07:51:25;;;;;;;4.82;3.17;;;;;;;;;;5012284;28;20101;-57
2023/04/23 07:53:55;;;;;;;4.68;2.83;;;;;;;;;;5007600;28;20579;-57
2023/04/23 07:56:23;;;;;;;5.50;2.72;;;;;;;;;;5013657;28;20046;-57
2023/04/23 07:58:49;;;;;;;4.65;3.08;;;;;;;;;;5013531;28;20532;-57
2023/04/23 08:01:15;;;;;;;6.28;3.25;;;;;;;;;;5008544;28;20128;-57
2023/04/23 08:03:41;;;;;;;7.00;2.83;;;;;;;;;;5014688;28;20053;-57
2023/04/23 08:06:09;;;;;;;5.93;3.28;;;;;;;;;;5013361;28;20089;-58
2023/04/23 08:08:35;;;;;;;5.28;3.42;;;;;;;;;;5014309;28;20069;-57
2023/04/23 08:11:02;;;;;;;4.40;3.10;;;;;;;;;;5015095;28;20038;-57
2023/04/23 08:13:28;;;;;;;4.25;3.05;;;;;;;;;;5014731;28;20049;-57
2023/04/23 08:15:54;;;;;;;6.72;4.00;;;;;;;;;;5012757;28;20053;-58
2023/04/23 08:18:20;;;;;;;6.05;4.32;;;;;;;;;;5012361;28;20188;-57
2023/04/23 08:20:46;;;;;;;6.70;4.10;;;;;;;;;;5014350;28;20108;-57
2023/04/23 08:23:12;;;;;;;7.38;3.72;;;;;;;;;;5013660;28;20050;-58
2023/04/23 08:25:38;;;;;;;6.43;3.15;;;;;;;;;;5013371;28;20088;-57
2023/04/23 08:28:04;;;;;;;4.50;3.17;;;;;;;;;;5011940;28;20042;-57
2023/04/23 08:30:30;;;;;;;5.00;2.67;;;;;;;;;;5011928;28;20046;-58
2023/04/23 08:32:57;;;;;;;10.13;3.60;;;;;;;;;;5007712;28;20834;-59
2023/04/23 08:35:23;;;;;;;5.03;3.00;;;;;;;;;;5011475;28;20057;-57
2023/04/23 08:37:49;;;;;;;10.15;2.50;;;;;;;;;;5010072;28;20050;-57
2023/04/23 08:40:15;;;;;;;4.03;2.97;;;;;;;;;;5010128;28;20042;-57
2023/04/23 08:42:44;;;;;;;3.30;2.47;;;;;;;;;;5008587;28;20054;-57
2023/04/23 08:45:11;;;;;;;3.47;2.40;;;;;;;;;;5013504;28;20042;-58
2023/04/23 08:47:41;;;;;;;4.80;3.05;;;;;;;;;;5026139;28;20050;-57
2023/04/23 08:50:08;;;;;;;6.38;2.33;;;;;;;;;;5010056;28;20546;-57
2023/04/23 08:52:34;;;;;;;5.13;2.85;;;;;;;;;;5042350;28;20034;-57
2023/04/23 08:55:01;;;;;;;5.13;2.75;;;;;;;;;;5014019;28;20549;-57
2023/04/23 08:57:29;;;;;;;4.10;2.88;;;;;;;;;;5011846;28;20555;-58
2023/04/23 08:59:56;;;;;;;3.70;2.45;;;;;;;;;;5013723;28;20516;-57
2023/04/23 09:02:22;;;;;;;3.08;2.03;;;;;;;;;;5011623;28;20041;-57
2023/04/23 09:04:49;;;;;;;4.82;2.90;;;;;;;;;;5012404;28;20093;-57
2023/04/23 09:07:16;;;;;;;4.13;2.67;;;;;;;;;;5013025;28;20072;-57
2023/04/23 09:09:42;;;;;;;3.22;2.25;;;;;;;;;;5043711;28;20130;-57
2023/04/23 09:12:09;;;;;;;4.32;2.80;;;;;;;;;;5014275;28;20038;-57
2023/04/23 09:14:35;;;;;;;3.50;2.70;;;;;;;;;;5010828;28;20045;-57
2023/04/23 09:17:05;;;;;;;2.88;1.88;;;;;;;;;;5012758;28;20038;-57
2023/04/23 09:19:31;;;;;;;6.18;2.70;;;;;;;;;;5010356;28;20542;-57
2023/04/23 09:22:00;;;;;;;2.83;1.85;;;;;;;;;;5005263;28;20042;-57
2023/04/23 09:24:27;;;;;;;7.38;2.25;;;;;;;;;;5012332;28;20188;-58
2023/04/23 09:26:53;;;;;;;3.53;2.58;;;;;;;;;;5013345;28;20038;-57
2023/04/23 09:29:23;;;;;;;2.75;1.92;;;;;;;;;;5015054;28;20485;-57
2023/04/23 09:31:50;;;;;;;4.18;2.30;;;;;;;;;;5013114;28;20603;-57
2023/04/23 09:34:17;;;;;;;3.03;1.90;;;;;;;;;;5014276;28;20042;-58
2023/04/23 09:36:49;;;;;;;4.82;2.38;;;;;;;;;;5012963;28;20535;-58
2023/04/23 09:39:15;;;;;;;3.58;2.10;;;;;;;;;;5012594;28;20129;-58
2023/04/23 09:41:41;;;;;;;4.75;2.25;;;;;;;;;;5012250;28;20135;-58
2023/04/23 09:44:08;;;;;;;3.17;1.63;;;;;;;;;;5014207;28;20041;-57
2023/04/23 09:46:34;;;;;;;3.92;1.70;;;;;;;;;;5013904;28;20133;-57
2023/04/23 09:49:01;;;;;;;2.70;1.85;;;;;;;;;;5014613;28;20042;-58
2023/04/23 09:51:28;;;;;;;3.70;2.38;;;;;;;;;;5013323;28;20532;-58
2023/04/23 09:53:55;;;;;;;2.83;2.03;;;;;;;;;;5013942;28;20146;-58
2023/04/23 09:56:21;;;;;;;4.35;2.33;;;;;;;;;;5012311;28;20169;-58
2023/04/23 09:58:47;;;;;;;3.30;1.63;;;;;;;;;;5013677;28;20034;-58
2023/04/23 10:01:14;;;;;;;4.22;2.00;;;;;;;;;;5016211;28;20085;-58
2023/04/23 10:03:43;;;;;;;6.35;2.20;;;;;;;;;;5017799;28;20042;-58
2023/04/23 10:06:15;;;;;;;4.35;2.15;;;;;;;;;;5014125;28;20045;-58
2023/04/23 10:08:41;;;;;;;3.13;2.05;;;;;;;;;;5012081;28;20133;-58
2023/04/23 10:11:07;;;;;;;3.15;2.03;;;;;;;;;;5011070;28;20092;-58
2023/04/23 10:13:34;;;;;;;4.15;2.47;;;;;;;;;;5016323;28;20475;-58
2023/04/23 10:16:01;;;;;;;5.85;2.08;;;;;;;;;;5013355;28;20550;-58
2023/04/23 10:18:30;;;;;;;3.05;1.80;;;;;;;;;;5014712;28;20135;-58
2023/04/23 10:20:57;;;;;;;4.88;2.97;;;;;;;;;;5014985;28;20058;-58
2023/04/23 10:23:24;;;;;;;3.58;2.08;;;;;;;;;;5016754;28;20033;-58
2023/04/23 10:25:50;;;;;;;4.43;2.55;;;;;;;;;;5016826;28;20463;-58
2023/04/23 10:28:17;;;;;;;4.03;1.90;;;;;;;;;;5014730;28;20042;-58
2023/04/23 10:30:43;;;;;;;3.92;2.10;;;;;;;;;;5013274;28;20050;-58
2023/04/23 10:33:11;;;;;;;5.47;2.47;;;;;;;;;;5005657;28;20514;-58
2023/04/23 10:35:37;;;;;;;3.92;2.53;;;;;;;;;;5011830;28;20126;-58
2023/04/23 10:38:04;;;;;;;5.57;2.30;;;;;;;;;;5005402;28;20045;-60
2023/04/23 10:40:32;;;;;;;3.60;2.65;;;;;;;;;;5012135;28;20065;-60
2023/04/23 10:42:59;;;;;;;4.82;1.75;;;;;;;;;;5012493;28;20136;-59
2023/04/23 10:45:29;;;;;;;2.90;1.58;;;;;;;;;;5024001;28;20043;-59
2023/04/23 10:47:55;;;;;;;3.00;1.52;;;;;;;;;;5011399;28;20046;-60
2023/04/23 10:50:22;;;;;;;2.10;1.30;;;;;;;;;;5010697;28;20046;-60
2023/04/23 10:52:52;;;;;;;2.30;1.30;;;;;;;;;;5006617;28;20148;-59
2023/04/23 10:55:19;;;;;;;2.15;1.40;;;;;;;;;;5014469;28;20048;-59
2023/04/23 10:57:55;;;;;;;2.22;1.30;;;;;;;;;;5015277;28;20058;-60
2023/04/23 11:00:21;;;;;;;5.07;1.27;;;;;;;;;;5012401;28;20545;-59
2023/04/23 11:02:47;;;;;;;1.90;1.10;;;;;;;;;;5014967;28;20053;-59
2023/04/23 11:05:14;;;;;;;1.98;0.80;;;;;;;;;;5014805;28;20456;-68
2023/04/23 11:07:40;;;;;;;1.50;0.70;;;;;;;;;;5015965;28;20033;-61
2023/04/23 11:10:13;;;;;;;0.93;0.75;;;;;;;;;;5013835;28;20050;-62
2023/04/23 11:12:39;;;;;;;5.72;2.50;;;;;;;;;;5014600;28;20046;-59
2023/04/23 11:15:13;;;;;;;1.35;0.68;;;;;;;;;;5008464;28;20045;-59
2023/04/23 11:17:39;;;;;;;1.65;0.70;;;;;;;;;;5007900;28;20152;-58
2023/04/23 11:20:15;;;;;;;0.88;0.63;;;;;;;;;;5007668;28;20042;-58
2023/04/23 11:22:48;;;;;;;0.52;0.40;;;;;;;;;;5010672;28;20041;-59
2023/04/23 11:25:15;;;;;;;1.15;0.50;;;;;;;;;;5011919;28;20042;-59
2023/04/23 11:27:42;;;;;;;2.75;0.75;;;;;;;;;;5012412;28;20528;-59
2023/04/23 11:30:16;;;;;;;0.32;0.32;;;;;;;;;;5012962;28;20045;-59
2023/04/23 11:32:44;;;;;;;0.65;0.60;;;;;;;;;;5015345;28;20053;-59
2023/04/23 11:35:10;;;;;;;2.35;0.65;;;;;;;;;;5014685;28;20038;-59
2023/04/23 11:37:40;;;;;;;2.88;0.40;;;;;;;;;;5015789;28;20042;-58
2023/04/23 11:40:08;;;;;;;0.68;0.45;;;;;;;;;;5015782;28;20076;-59
2023/04/23 11:42:46;;;;;;;0.20;0.20;;;;;;;;;;5016223;28;20124;-58
2023/04/23 11:45:16;;;;;;;1.17;0.60;;;;;;;;;;5016082;28;20694;-59
2023/04/23 11:47:43;;;;;;;2.00;0.40;;;;;;;;;;5015075;28;20034;-59
2023/04/23 11:50:09;;;;;;;0.68;0.68;;;;;;;;;;5015493;28;20512;-59
2023/04/23 11:52:36;;;;;;;0.60;0.57;;;;;;;;;;5014224;28;20093;-58
2023/04/23 11:55:03;;;;;;;0.47;0.47;;;;;;;;;;5015324;28;21320;-58
2023/04/23 11:57:29;;;;;;;0.60;0.40;;;;;;;;;;5014948;28;20038;-59
2023/04/23 11:59:55;;;;;;;0.82;0.68;;;;;;;;;;5014112;28;20377;-59
2023/04/23 12:02:23;;;;;;;1.60;0.73;;;;;;;;;;5015428;28;20062;-58
2023/04/23 12:04:50;;;;;;;0.32;0.32;;;;;;;;;;5015016;28;20042;-59
2023/04/23 12:07:16;;;;;;;1.25;0.55;;;;;;;;;;5014571;28;20045;-60
2023/04/23 12:09:45;;;;;;;0.30;0.30;;;;;;;;;;5014713;28;20045;-59
2023/04/23 12:12:11;;;;;;;0.22;0.22;;;;;;;;;;5015407;28;20657;-59
2023/04/23 12:14:37;;;;;;;0.85;0.40;;;;;;;;;;5014812;28;20045;-59
2023/04/23 12:17:10;;;;;;;0.75;0.68;;;;;;;;;;5015703;28;20050;-58
2023/04/23 12:19:37;;;;;;;0.32;0.32;;;;;;;;;;5015718;28;20058;-59
2023/04/23 12:22:04;;;;;;;2.00;0.52;;;;;;;;;;5014511;28;20034;-59
2023/04/23 12:24:31;;;;;;;0.70;0.60;;;;;;;;;;5031058;28;20045;-59
2023/04/23 12:26:59;;;;;;;0.60;0.60;;;;;;;;;;5013461;28;20527;-59
2023/04/23 12:29:25;;;;;;;0.82;0.47;;;;;;;;;;5014830;28;20125;-59
2023/04/23 12:31:52;;;;;;;0.75;0.35;;;;;;;;;;5014097;28;20559;-59
2023/04/23 12:34:19;;;;;;;0.43;0.40;;;;;;;;;;5015442;28;20042;-58
2023/04/23 12:36:46;;;;;;;1.75;0.40;;;;;;;;;;5015358;28;20050;-58
2023/04/23 12:39:20;;;;;;;4.15;0.60;;;;;;;;;;5015288;28;20042;-59
2023/04/23 12:41:46;;;;;;;1.85;0.63;;;;;;;;;;5014923;28;20052;-59
2023/04/23 12:44:12;;;;;;;3.10;0.60;;;;;;;;;;5015141;28;20041;-60
2023/04/23 12:46:38;;;;;;;1.88;0.60;;;;;;;;;;5015080;28;20049;-58
2023/04/23 12:49:05;;;;;;;2.03;0.57;;;;;;;;;;5014795;28;20440;-58
2023/04/23 12:51:31;;;;;;;2.40;0.65;;;;;;;;;;5015646;28;20543;-59
2023/04/23 12:53:57;;;;;;;2.72;0.60;;;;;;;;;;5015327;28;20070;-58
2023/04/23 12:56:23;;;;;;;2.92;0.90;;;;;;;;;;5016139;28;20065;-59
2023/04/23 12:58:49;;;;;;;2.63;0.70;;;;;;;;;;5013833;28;20050;-58
2023/04/23 13:01:15;;;;;;;4.57;1.00;;;;;;;;;;5014439;28;20116;-59
2023/04/23 13:03:41;;;;;;;0.60;0.50;;;;;;;;;;5014268;28;20037;-59
2023/04/23 13:06:07;;;;;;;2.85;1.23;;;;;;;;;;5014161;28;20053;-58
2023/04/23 13:08:34;;;;;;;2.60;0.80;;;;;;;;;;5014265;28;20785;-59
2023/04/23 13:11:00;;;;;;;1.13;0.90;;;;;;;;;;5015080;28;20042;-59
2023/04/23 13:13:26;;;;;;;3.00;0.90;;;;;;;;;;5014006;28;20559;-59
2023/04/23 13:15:53;;;;;;;5.57;1.13;;;;;;;;;;5045589;28;20042;-59
2023/04/23 13:18:21;;;;;;;1.55;0.70;;;;;;;;;;5014878;28;20398;-59
2023/04/23 13:20:47;;;;;;;2.78;0.80;;;;;;;;;;5014036;28;20074;-58
2023/04/23 13:23:14;;;;;;;3.25;0.60;;;;;;;;;;5006064;28;20037;-59
2023/04/23 13:25:40;;;;;;;7.47;1.10;;;;;;;;;;5014254;28;20046;-58
2023/04/23 13:28:06;;;;;;;0.98;0.70;;;;;;;;;;5014119;28;20076;-59
2023/04/23 13:30:32;;;;;;;1.58;0.80;;;;;;;;;;5014370;28;20555;-58
2023/04/23 13:32:58;;;;;;;1.85;0.88;;;;;;;;;;5013617;28;20119;-59
2023/04/23 13:35:24;;;;;;;2.08;1.27;;;;;;;;;;5013765;28;20118;-59
2023/04/23 13:37:50;;;;;;;1.38;0.68;;;;;;;;;;5012968;28;20058;-58
2023/04/23 13:40:17;;;;;;;3.85;0.95;;;;;;;;;;5012873;28;20038;-58
2023/04/23 13:42:43;;;;;;;3.97;1.60;;;;;;;;;;5013721;28;20452;-58
2023/04/23 13:45:09;;;;;;;2.60;0.88;;;;;;;;;;5013933;28;20621;-58
2023/04/23 13:47:35;;;;;;;2.38;1.08;;;;;;;;;;5014371;28;20050;-58
2023/04/23 13:50:05;;;;;;;2.70;0.90;;;;;;;;;;5014032;28;20486;-58
2023/04/23 13:52:32;;;;;;;1.42;0.90;;;;;;;;;;5013775;28;20042;-58
2023/04/23 13:55:01;;;;;;;5.45;2.03;;;;;;;;;;5013943;28;20057;-58
2023/04/23 13:57:27;;;;;;;1.23;1.10;;;;;;;;;;5013109;28;20078;-58
2023/04/23 13:59:54;;;;;;;1.23;0.70;;;;;;;;;;5006338;28;20085;-58
2023/04/23 14:02:21;;;;;;;1.45;0.73;;;;;;;;;;5013764;28;20034;-58
2023/04/23 14:04:47;;;;;;;0.60;0.60;;;;;;;;;;5014161;28;20046;-58
2023/04/23 14:07:13;;;;;;;1.73;0.90;;;;;;;;;;5013336;28;20918;-59
2023/04/23 14:09:39;;;;;;;2.97;1.08;;;;;;;;;;5014150;28;20706;-58
2023/04/23 14:12:05;;;;;;;0.73;0.60;;;;;;;;;;5013333;28;20057;-58
2023/04/23 14:14:31;;;;;;;0.45;0.45;;;;;;;;;;5013790;28;20045;-58
2023/04/23 14:16:58;;;;;;;0.68;0.68;;;;;;;;;;5013896;28;20049;-58
2023/04/23 14:19:24;;;;;;;3.92;1.42;;;;;;;;;;5013236;28;20042;-58
2023/04/23 14:21:50;;;;;;;0.85;0.50;;;;;;;;;;5013569;28;20578;-58
2023/04/23 14:24:16;;;;;;;1.05;0.50;;;;;;;;;;5014510;28;20045;-58
2023/04/23 14:26:44;;;;;;;0.57;0.50;;;;;;;;;;5013403;28;20038;-58
2023/04/23 14:29:24;;;;;;;1.80;0.60;;;;;;;;;;5012744;28;20086;-58
2023/04/23 14:31:50;;;;;;;3.78;0.90;;;;;;;;;;5013665;28;20104;-59
2023/04/23 14:34:16;;;;;;;1.50;0.90;;;;;;;;;;5013563;28;20049;-59
2023/04/23 14:36:43;;;;;;;0.50;0.50;;;;;;;;;;5013360;28;20041;-58
2023/04/23 14:39:10;;;;;;;2.40;1.23;;;;;;;;;;5013615;28;20046;-59